Terminal Aerodrome Forecast
Issued by NWS Wilmington, OH

Home | Current Version | Previous Version | Text Only | Print | Product List | Glossary On
Versions: 1 2 3 4 5 6 7 8 9 10 11 12 13 14 15 16 17 18 19 20 21 22 23
000
FTUS41 KILN 241500 AAB
TAFCMH
TAF AMD
KCMH 241511Z 2415/2512 21025G40KT P6SM SCT045 OVC060
     FM241600 22030G40KT P6SM -SHRA OVC035
      TEMPO 2416/2417 1SM -SHRA BR OVC025
     FM241900 24024G36KT P6SM OVC025
     FM250600 24014G26KT P6SM SCT025
      TEMPO 2506/2509 BKN025=

USA.gov is the U.S. government's official web portal to all federal, state and local government web resources and services.